Time;durP1;ratioP1;P1;durP2;ratioP2;P2;SDS_P1;SDS_P2;PMS_P1;PMS_P2;Temp;Humidity;BMP_temperature;BMP_pressure;BME280_temperature;BME280_humidity;BME280_pressure;Samples;Min_cycle;Max_cycle;Signal;HPM_P1;HPM_P2
2021/06/18 00:00:21;;;;;;;16.83;12.05;;;;;;;;;;6256520;22;20023;-87
2021/06/18 00:02:49;;;;;;;14.00;10.63;;;;;;;;;;6257001;22;20024;-87
2021/06/18 00:05:16;;;;;;;18.02;13.05;;;;;;;;;;6260804;22;20027;-87
2021/06/18 00:07:43;;;;;;;16.83;10.75;;;;;;;;;;6286806;22;20024;-86
2021/06/18 00:10:11;;;;;;;14.02;10.65;;;;;;;;;;6284796;22;20034;-87
2021/06/18 00:12:38;;;;;;;18.90;11.45;;;;;;;;;;6283689;22;20028;-87
2021/06/18 00:15:06;;;;;;;14.02;10.48;;;;;;;;;;6256251;22;20027;-86
2021/06/18 00:17:33;;;;;;;17.30;10.48;;;;;;;;;;6281337;22;20054;-87
2021/06/18 00:20:00;;;;;;;17.27;12.07;;;;;;;;;;6281882;22;20362;-87
2021/06/18 00:22:26;;;;;;;21.20;14.38;;;;;;;;;;6283468;22;20024;-86
2021/06/18 00:24:55;;;;;;;21.90;13.55;;;;;;;;;;6284967;22;20031;-86
2021/06/18 00:27:22;;;;;;;17.25;11.82;;;;;;;;;;6282837;22;20050;-87
2021/06/18 00:29:51;;;;;;;21.42;12.30;;;;;;;;;;6257390;22;20023;-87
2021/06/18 00:32:18;;;;;;;16.10;11.18;;;;;;;;;;6257176;22;20034;-87
2021/06/18 00:34:47;;;;;;;19.40;12.20;;;;;;;;;;6283147;22;20380;-86
2021/06/18 00:37:14;;;;;;;14.65;10.93;;;;;;;;;;6283402;22;20082;-87
2021/06/18 00:39:59;;;;;;;14.93;10.45;;;;;;;;;;6283326;22;20031;-87
2021/06/18 00:42:26;;;;;;;14.02;10.40;;;;;;;;;;6284663;22;20024;-87
2021/06/18 00:44:55;;;;;;;16.25;12.70;;;;;;;;;;6285889;22;20024;-86
2021/06/18 00:47:22;;;;;;;22.42;13.75;;;;;;;;;;6284621;22;20028;-86
2021/06/18 00:49:52;;;;;;;27.30;15.10;;;;;;;;;;6284248;22;20089;-85
2021/06/18 00:52:23;;;;;;;16.25;12.50;;;;;;;;;;6283609;22;20035;-85
2021/06/18 00:54:53;;;;;;;19.23;13.73;;;;;;;;;;6257130;22;20153;-87
2021/06/18 00:57:20;;;;;;;15.90;12.20;;;;;;;;;;6257569;22;20078;-86
2021/06/18 00:59:50;;;;;;;20.88;13.65;;;;;;;;;;6258164;22;20023;-87
2021/06/18 01:02:24;;;;;;;19.88;12.95;;;;;;;;;;6257781;22;20459;-86
2021/06/18 01:04:50;;;;;;;18.52;13.02;;;;;;;;;;6260056;22;20032;-86
2021/06/18 01:07:23;;;;;;;22.88;16.40;;;;;;;;;;6283707;22;20074;-86
2021/06/18 01:09:52;;;;;;;23.25;16.95;;;;;;;;;;6282434;22;20023;-85
2021/06/18 01:12:20;;;;;;;22.98;16.08;;;;;;;;;;6285037;22;20038;-88
2021/06/18 01:14:56;;;;;;;21.02;14.98;;;;;;;;;;6257351;22;20046;-86
2021/06/18 01:17:24;;;;;;;19.75;12.82;;;;;;;;;;6256588;22;20024;-86
2021/06/18 01:20:10;;;;;;;19.15;14.10;;;;;;;;;;6260130;22;20031;-87
2021/06/18 01:22:37;;;;;;;17.58;13.40;;;;;;;;;;6258652;22;20076;-86
2021/06/18 01:25:04;;;;;;;19.38;14.65;;;;;;;;;;6257420;22;20015;-86
2021/06/18 01:27:30;;;;;;;19.67;15.98;;;;;;;;;;6284441;22;20379;-86
2021/06/18 01:30:07;;;;;;;30.27;17.88;;;;;;;;;;6286891;22;20421;-89
2021/06/18 01:32:46;;;;;;;24.25;18.85;;;;;;;;;;6255625;22;20296;-86
2021/06/18 01:35:15;;;;;;;24.67;18.17;;;;;;;;;;6282222;22;20027;-86
2021/06/18 01:37:43;;;;;;;29.38;21.63;;;;;;;;;;6257216;22;20253;-86
2021/06/18 01:40:10;;;;;;;24.88;18.65;;;;;;;;;;6283018;22;20386;-87
2021/06/18 01:42:39;;;;;;;26.35;18.25;;;;;;;;;;6283086;22;20051;-87
2021/06/18 01:45:07;;;;;;;23.08;17.75;;;;;;;;;;6257323;22;20024;-87
2021/06/18 01:47:35;;;;;;;33.13;23.00;;;;;;;;;;6256596;22;20023;-87
2021/06/18 01:50:02;;;;;;;27.00;20.67;;;;;;;;;;6258032;22;20373;-87
2021/06/18 01:52:29;;;;;;;31.45;22.25;;;;;;;;;;6283803;22;20028;-86
2021/06/18 01:55:01;;;;;;;27.00;21.23;;;;;;;;;;6284182;22;20114;-87
2021/06/18 01:57:28;;;;;;;22.27;16.52;;;;;;;;;;6257523;22;20038;-86
2021/06/18 01:59:57;;;;;;;34.55;21.80;;;;;;;;;;6282660;22;20015;-87
2021/06/18 02:02:25;;;;;;;40.03;25.90;;;;;;;;;;6282285;22;20031;-86
2021/06/18 02:04:55;;;;;;;30.17;22.08;;;;;;;;;;6282895;22;20015;-86
2021/06/18 02:07:24;;;;;;;21.65;15.88;;;;;;;;;;6257352;22;20024;-86
2021/06/18 02:09:54;;;;;;;20.95;14.48;;;;;;;;;;6258282;22;20023;-86
2021/06/18 02:12:22;;;;;;;22.65;16.50;;;;;;;;;;6251540;23;20024;-86
2021/06/18 02:14:49;;;;;;;24.95;19.42;;;;;;;;;;6251987;23;20095;-86
2021/06/18 02:17:17;;;;;;;26.13;20.08;;;;;;;;;;6251734;23;20028;-86
2021/06/18 02:19:48;;;;;;;27.00;20.95;;;;;;;;;;6252189;22;20025;-86
2021/06/18 02:22:16;;;;;;;31.13;22.23;;;;;;;;;;6252721;23;20035;-86
2021/06/18 02:24:43;;;;;;;28.73;22.02;;;;;;;;;;6251423;23;20024;-86
2021/06/18 02:27:28;;;;;;;37.45;25.05;;;;;;;;;;6276439;22;20047;-86
2021/06/18 02:29:58;;;;;;;27.80;21.23;;;;;;;;;;6252696;22;20024;-86
2021/06/18 02:32:26;;;;;;;39.55;28.70;;;;;;;;;;6253738;22;20028;-86
2021/06/18 02:34:53;;;;;;;45.97;28.27;;;;;;;;;;6252717;23;20024;-86
2021/06/18 02:37:19;;;;;;;41.63;28.30;;;;;;;;;;6256942;23;20028;-86
2021/06/18 02:39:48;;;;;;;34.60;24.95;;;;;;;;;;6268087;23;20016;-86
2021/06/18 02:42:14;;;;;;;32.28;21.90;;;;;;;;;;6266678;23;20012;-87
2021/06/18 02:44:41;;;;;;;33.00;23.90;;;;;;;;;;6258866;22;20024;-87
2021/06/18 02:47:16;;;;;;;38.92;25.98;;;;;;;;;;6291058;22;20039;-86
2021/06/18 02:49:48;;;;;;;35.13;27.48;;;;;;;;;;6269970;22;20016;-86
2021/06/18 02:52:18;;;;;;;42.97;31.50;;;;;;;;;;6257333;23;20028;-86
2021/06/18 02:54:45;;;;;;;46.28;32.88;;;;;;;;;;6255936;23;20480;-86
2021/06/18 02:57:20;;;;;;;42.55;29.63;;;;;;;;;;6260828;22;20099;-86
2021/06/18 03:00:02;;;;;;;37.80;27.80;;;;;;;;;;6251466;23;20028;-86
2021/06/18 03:02:35;;;;;;;42.03;31.02;;;;;;;;;;6252838;22;20036;-86
2021/06/18 03:05:04;;;;;;;35.03;28.70;;;;;;;;;;6251263;23;20314;-87
2021/06/18 03:07:32;;;;;;;44.55;32.50;;;;;;;;;;6253047;22;20024;-87
2021/06/18 03:10:01;;;;;;;44.83;32.78;;;;;;;;;;6253150;22;20032;-87
2021/06/18 03:12:28;;;;;;;44.15;31.33;;;;;;;;;;6270512;22;20024;-87
2021/06/18 03:15:01;;;;;;;38.97;30.60;;;;;;;;;;6259922;22;20051;-86
2021/06/18 03:17:28;;;;;;;35.60;27.70;;;;;;;;;;6284370;22;20019;-87
2021/06/18 03:20:02;;;;;;;43.85;30.83;;;;;;;;;;6263342;22;20077;-85
2021/06/18 03:22:33;;;;;;;41.53;29.45;;;;;;;;;;6286064;22;20072;-87
2021/06/18 03:25:02;;;;;;;43.58;32.30;;;;;;;;;;6260266;22;20152;-87
2021/06/18 03:27:33;;;;;;;45.88;33.65;;;;;;;;;;6285679;22;20345;-87
2021/06/18 03:30:00;;;;;;;43.35;30.38;;;;;;;;;;6286335;22;20024;-87
2021/06/18 03:32:27;;;;;;;51.15;34.88;;;;;;;;;;6259943;22;20024;-87
2021/06/18 03:34:55;;;;;;;45.13;31.88;;;;;;;;;;6261432;22;20024;-87
2021/06/18 03:37:21;;;;;;;42.60;34.22;;;;;;;;;;6287498;22;20405;-87
2021/06/18 03:39:50;;;;;;;42.80;29.65;;;;;;;;;;6286189;22;20102;-86
2021/06/18 03:42:17;;;;;;;39.67;28.05;;;;;;;;;;6260938;22;20053;-87
2021/06/18 03:44:44;;;;;;;40.85;31.48;;;;;;;;;;6262530;22;20068;-86
2021/06/18 03:47:11;;;;;;;38.33;29.45;;;;;;;;;;6260474;22;20023;-86
2021/06/18 03:49:38;;;;;;;47.28;34.08;;;;;;;;;;6260330;22;20050;-87
2021/06/18 03:52:05;;;;;;;46.15;31.45;;;;;;;;;;6288406;22;20051;-87
2021/06/18 03:54:32;;;;;;;49.75;34.78;;;;;;;;;;6259745;22;20377;-87
2021/06/18 03:57:00;;;;;;;43.70;30.70;;;;;;;;;;6284322;22;20042;-86
2021/06/18 03:59:27;;;;;;;46.33;34.28;;;;;;;;;;6283633;22;20023;-87
2021/06/18 04:01:56;;;;;;;52.92;37.70;;;;;;;;;;6282058;22;20031;-87
2021/06/18 04:04:24;;;;;;;40.53;30.88;;;;;;;;;;6284688;22;20103;-86
2021/06/18 04:06:50;;;;;;;39.72;29.45;;;;;;;;;;6258934;22;20031;-86
2021/06/18 04:09:18;;;;;;;46.08;32.78;;;;;;;;;;6284205;22;20039;-86
2021/06/18 04:11:46;;;;;;;51.08;37.15;;;;;;;;;;6281171;22;20314;-82
2021/06/18 04:14:14;;;;;;;40.05;32.53;;;;;;;;;;6280240;22;20028;-83
2021/06/18 04:16:41;;;;;;;47.15;34.75;;;;;;;;;;6255773;22;20362;-83
2021/06/18 04:19:12;;;;;;;51.60;37.20;;;;;;;;;;6253686;22;20034;-82
2021/06/18 04:21:43;;;;;;;43.67;33.70;;;;;;;;;;6255776;22;20032;-83
2021/06/18 04:24:13;;;;;;;44.88;35.17;;;;;;;;;;6254252;22;20028;-83
2021/06/18 04:26:40;;;;;;;45.17;33.88;;;;;;;;;;6279041;22;20020;-83
2021/06/18 04:29:07;;;;;;;35.97;29.52;;;;;;;;;;6253214;22;20031;-83
2021/06/18 04:31:34;;;;;;;41.85;29.08;;;;;;;;;;6280247;22;20024;-83
2021/06/18 04:34:00;;;;;;;39.17;30.20;;;;;;;;;;6280723;22;20482;-83
2021/06/18 04:36:27;;;;;;;40.90;28.50;;;;;;;;;;6281474;22;20034;-82
2021/06/18 04:38:53;;;;;;;42.47;30.85;;;;;;;;;;6254493;22;20193;-82
2021/06/18 04:41:20;;;;;;;34.95;27.80;;;;;;;;;;6284483;22;20023;-82
2021/06/18 04:43:47;;;;;;;37.30;27.90;;;;;;;;;;6280882;22;20024;-82
2021/06/18 04:46:16;;;;;;;40.33;30.23;;;;;;;;;;6278240;22;20029;-83
2021/06/18 04:48:50;;;;;;;41.13;29.17;;;;;;;;;;6252057;22;20121;-82
2021/06/18 04:51:17;;;;;;;36.88;24.38;;;;;;;;;;6252943;22;20028;-83
2021/06/18 04:53:44;;;;;;;37.55;27.73;;;;;;;;;;6278956;22;20078;-83
2021/06/18 04:56:11;;;;;;;35.83;26.77;;;;;;;;;;6252224;22;20179;-83
2021/06/18 04:58:38;;;;;;;37.95;26.42;;;;;;;;;;6252537;22;20035;-83
2021/06/18 05:01:08;;;;;;;32.75;21.95;;;;;;;;;;6255722;22;20031;-83
2021/06/18 05:03:35;;;;;;;35.72;25.48;;;;;;;;;;6281875;22;20024;-82
2021/06/18 05:06:02;;;;;;;34.05;25.55;;;;;;;;;;6255219;22;20564;-83
2021/06/18 05:08:29;;;;;;;31.33;22.98;;;;;;;;;;6277719;22;20040;-82
2021/06/18 05:10:56;;;;;;;30.38;24.33;;;;;;;;;;6254140;22;20031;-83
2021/06/18 05:13:23;;;;;;;35.28;23.90;;;;;;;;;;6246518;23;20023;-82
2021/06/18 05:15:49;;;;;;;33.92;23.30;;;;;;;;;;6246308;23;20028;-82
2021/06/18 05:18:17;;;;;;;29.95;23.67;;;;;;;;;;6246417;23;20032;-82
2021/06/18 05:20:44;;;;;;;29.63;22.13;;;;;;;;;;6246589;23;20059;-83
2021/06/18 05:23:11;;;;;;;33.33;22.88;;;;;;;;;;6247694;23;20024;-83
2021/06/18 05:25:37;;;;;;;32.10;22.73;;;;;;;;;;6269952;22;20035;-83
2021/06/18 05:28:04;;;;;;;35.17;24.88;;;;;;;;;;6244867;23;20085;-83
2021/06/18 05:30:31;;;;;;;30.75;23.00;;;;;;;;;;6245225;23;20062;-83
2021/06/18 05:32:57;;;;;;;29.20;21.02;;;;;;;;;;6247041;22;20038;-83
2021/06/18 05:35:24;;;;;;;23.58;19.35;;;;;;;;;;6269747;22;20024;-83
2021/06/18 05:37:51;;;;;;;29.75;19.75;;;;;;;;;;6244291;23;20028;-84
2021/06/18 05:40:18;;;;;;;28.20;20.90;;;;;;;;;;6241911;23;20330;-83
2021/06/18 05:42:45;;;;;;;30.90;20.55;;;;;;;;;;6268873;22;20066;-83
2021/06/18 05:45:15;;;;;;;28.73;22.23;;;;;;;;;;6270026;22;20051;-83
2021/06/18 05:47:43;;;;;;;25.67;20.27;;;;;;;;;;6246721;22;20079;-82
2021/06/18 05:50:10;;;;;;;24.70;18.70;;;;;;;;;;6244009;23;20059;-83
2021/06/18 05:52:43;;;;;;;27.35;21.50;;;;;;;;;;6241501;22;20024;-83
2021/06/18 05:55:16;;;;;;;27.27;18.02;;;;;;;;;;6268895;22;20039;-83
2021/06/18 05:57:43;;;;;;;24.85;19.83;;;;;;;;;;6243797;23;20038;-84
2021/06/18 06:00:12;;;;;;;30.02;18.95;;;;;;;;;;6244054;23;20039;-82
2021/06/18 06:02:59;;;;;;;32.70;20.05;;;;;;;;;;6241911;23;20070;-83
2021/06/18 06:05:25;;;;;;;28.08;17.55;;;;;;;;;;6245418;23;20051;-84
2021/06/18 06:07:53;;;;;;;30.38;17.83;;;;;;;;;;6259052;22;20024;-83
2021/06/18 06:11:12;;;;;;;28.92;18.85;;;;;;;;;;6251629;22;20032;-84
2021/06/18 06:13:41;;;;;;;25.40;18.25;;;;;;;;;;6280741;22;20031;-84
2021/06/18 06:16:08;;;;;;;25.50;17.15;;;;;;;;;;6265084;22;20032;-86
2021/06/18 06:18:38;;;;;;;22.80;17.75;;;;;;;;;;6284099;22;20027;-84
2021/06/18 06:21:05;;;;;;;26.38;19.13;;;;;;;;;;6257037;22;20312;-84
2021/06/18 06:23:32;;;;;;;30.70;20.27;;;;;;;;;;6251160;22;20273;-83
2021/06/18 06:26:02;;;;;;;30.45;20.80;;;;;;;;;;6282120;22;20077;-82
2021/06/18 06:28:29;;;;;;;32.17;19.85;;;;;;;;;;6256241;22;20038;-83
2021/06/18 06:30:56;;;;;;;29.77;18.27;;;;;;;;;;6255578;22;20023;-84
2021/06/18 06:33:23;;;;;;;31.35;20.98;;;;;;;;;;6254660;22;20046;-85
2021/06/18 06:35:55;;;;;;;30.48;19.98;;;;;;;;;;6281150;22;20032;-84
2021/06/18 06:38:22;;;;;;;25.58;19.80;;;;;;;;;;6278058;22;20043;-84
2021/06/18 06:40:52;;;;;;;29.42;19.52;;;;;;;;;;6253581;22;20046;-84
2021/06/18 06:43:20;;;;;;;34.65;18.48;;;;;;;;;;6252531;22;20219;-83
2021/06/18 06:45:47;;;;;;;23.52;17.55;;;;;;;;;;6250257;22;20020;-83
2021/06/18 06:48:13;;;;;;;21.95;13.65;;;;;;;;;;6276222;22;20207;-83
2021/06/18 06:50:51;;;;;;;23.65;15.27;;;;;;;;;;6254455;22;20140;-83
2021/06/18 06:53:18;;;;;;;24.38;16.42;;;;;;;;;;6285426;22;20028;-84
2021/06/18 06:55:47;;;;;;;30.30;16.00;;;;;;;;;;6260061;22;20024;-84
2021/06/18 06:58:14;;;;;;;24.98;18.38;;;;;;;;;;6278378;22;20361;-84
2021/06/18 07:00:40;;;;;;;25.42;18.17;;;;;;;;;;6275718;22;20086;-83
2021/06/18 07:03:07;;;;;;;28.05;19.25;;;;;;;;;;6275798;22;20043;-84
2021/06/18 07:05:34;;;;;;;41.08;20.02;;;;;;;;;;6249929;22;20309;-82
2021/06/18 07:08:12;;;;;;;33.28;18.13;;;;;;;;;;6274668;22;20167;-83
2021/06/18 07:10:39;;;;;;;22.85;17.80;;;;;;;;;;6251043;22;20148;-83
2021/06/18 07:13:18;;;;;;;32.72;17.77;;;;;;;;;;6250708;22;20054;-83
2021/06/18 07:15:46;;;;;;;30.02;20.23;;;;;;;;;;6283953;22;20328;-84
2021/06/18 07:18:15;;;;;;;30.83;21.75;;;;;;;;;;6281584;22;20424;-84
2021/06/18 07:20:49;;;;;;;28.75;17.38;;;;;;;;;;6279122;22;20031;-86
2021/06/18 07:23:16;;;;;;;29.30;18.02;;;;;;;;;;6253857;22;20071;-84
2021/06/18 07:25:44;;;;;;;24.30;16.20;;;;;;;;;;6277351;22;20032;-84
2021/06/18 07:28:10;;;;;;;31.80;22.15;;;;;;;;;;6250741;22;20032;-85
2021/06/18 07:30:49;;;;;;;26.83;19.60;;;;;;;;;;6276534;22;20186;-83
2021/06/18 07:33:19;;;;;;;23.98;16.83;;;;;;;;;;6275912;22;20107;-84
2021/06/18 07:35:45;;;;;;;20.70;15.70;;;;;;;;;;6276844;22;20297;-85
2021/06/18 07:38:12;;;;;;;21.90;14.80;;;;;;;;;;6277296;22;20078;-85
2021/06/18 07:40:38;;;;;;;21.50;13.77;;;;;;;;;;6274558;22;20420;-84
2021/06/18 07:43:05;;;;;;;16.58;11.73;;;;;;;;;;6249180;22;20027;-85
2021/06/18 07:45:51;;;;;;;18.70;12.32;;;;;;;;;;6276819;22;20071;-85
2021/06/18 07:48:36;;;;;;;20.35;13.55;;;;;;;;;;6277369;22;20075;-84
2021/06/18 07:51:03;;;;;;;20.05;13.80;;;;;;;;;;6276052;22;20408;-83
2021/06/18 07:53:30;;;;;;;20.42;12.93;;;;;;;;;;6249984;22;20035;-84
2021/06/18 07:55:56;;;;;;;17.35;10.48;;;;;;;;;;6276617;22;20400;-85
2021/06/18 07:58:23;;;;;;;16.58;11.63;;;;;;;;;;6277270;22;20028;-84
2021/06/18 08:00:50;;;;;;;18.60;12.60;;;;;;;;;;6249498;22;20019;-84
2021/06/18 08:03:17;;;;;;;14.45;10.88;;;;;;;;;;6278971;22;20122;-85
2021/06/18 08:05:44;;;;;;;14.65;10.88;;;;;;;;;;6276741;22;20028;-84
2021/06/18 08:08:12;;;;;;;13.40;10.45;;;;;;;;;;6275617;22;20050;-85
2021/06/18 08:10:49;;;;;;;19.67;12.05;;;;;;;;;;6279653;22;20076;-86
2021/06/18 08:13:22;;;;;;;16.85;10.88;;;;;;;;;;6253734;22;20028;-85
2021/06/18 08:15:51;;;;;;;18.98;12.27;;;;;;;;;;6278934;22;20071;-86
2021/06/18 08:18:18;;;;;;;16.70;10.32;;;;;;;;;;6280019;22;20032;-84
2021/06/18 08:20:55;;;;;;;23.60;14.13;;;;;;;;;;6279039;22;20277;-86
2021/06/18 08:23:21;;;;;;;15.98;10.15;;;;;;;;;;6255884;22;20027;-84
2021/06/18 08:25:49;;;;;;;14.30;10.68;;;;;;;;;;6253446;22;20071;-85
2021/06/18 08:28:16;;;;;;;15.23;11.00;;;;;;;;;;6280094;22;20055;-84
2021/06/18 08:30:43;;;;;;;17.70;10.52;;;;;;;;;;6279955;22;20048;-83
2021/06/18 08:33:09;;;;;;;13.35;7.95;;;;;;;;;;6278862;22;20344;-84
2021/06/18 08:35:36;;;;;;;13.93;9.35;;;;;;;;;;6253299;22;20051;-84
2021/06/18 08:38:25;;;;;;;16.00;8.20;;;;;;;;;;6253442;22;20192;-85
2021/06/18 08:40:51;;;;;;;11.63;7.18;;;;;;;;;;6251569;22;20028;-84
2021/06/18 08:43:18;;;;;;;16.40;10.85;;;;;;;;;;6251960;22;20051;-85
2021/06/18 08:45:44;;;;;;;19.88;14.75;;;;;;;;;;6253881;22;20492;-84
2021/06/18 08:48:30;;;;;;;19.80;11.30;;;;;;;;;;6283458;22;20023;-85
2021/06/18 08:50:58;;;;;;;19.80;14.80;;;;;;;;;;6261401;22;20053;-85
2021/06/18 08:53:25;;;;;;;21.15;14.07;;;;;;;;;;6251504;22;20027;-85
2021/06/18 08:56:10;;;;;;;21.13;13.57;;;;;;;;;;6276015;22;20046;-85
2021/06/18 08:58:37;;;;;;;21.38;12.13;;;;;;;;;;6276347;22;20265;-84
2021/06/18 09:01:04;;;;;;;15.02;10.48;;;;;;;;;;6277502;22;20027;-85
2021/06/18 09:03:37;;;;;;;17.30;11.13;;;;;;;;;;6275435;22;20027;-85
2021/06/18 09:06:19;;;;;;;16.58;11.60;;;;;;;;;;6277629;22;20020;-84
2021/06/18 09:09:07;;;;;;;15.30;9.45;;;;;;;;;;6277053;22;20050;-84
2021/06/18 09:11:36;;;;;;;13.80;9.00;;;;;;;;;;6250637;22;20154;-84
2021/06/18 09:14:22;;;;;;;17.50;9.27;;;;;;;;;;6278203;22;20019;-84
2021/06/18 09:17:07;;;;;;;21.60;8.55;;;;;;;;;;6248509;22;20019;-85
2021/06/18 09:19:36;;;;;;;12.48;7.45;;;;;;;;;;6282492;22;20024;-85
2021/06/18 09:22:11;;;;;;;14.57;8.02;;;;;;;;;;6248286;22;20102;-86
2021/06/18 09:24:45;;;;;;;11.52;8.38;;;;;;;;;;6274152;22;20308;-84
2021/06/18 09:27:12;;;;;;;10.68;8.20;;;;;;;;;;6274407;22;20066;-84
2021/06/18 09:29:43;;;;;;;14.82;7.75;;;;;;;;;;6252255;22;20187;-85
2021/06/18 09:32:21;;;;;;;15.00;9.70;;;;;;;;;;6246856;22;20124;-84
2021/06/18 09:35:02;;;;;;;18.67;8.73;;;;;;;;;;6269871;22;20031;-85
2021/06/18 09:37:37;;;;;;;11.63;8.00;;;;;;;;;;6270765;22;20105;-85
2021/06/18 09:40:16;;;;;;;15.60;6.78;;;;;;;;;;6242538;22;20288;-85
2021/06/18 09:42:44;;;;;;;19.10;10.93;;;;;;;;;;6251842;22;20028;-85
2021/06/18 09:45:21;;;;;;;15.43;9.10;;;;;;;;;;6281950;22;20071;-85
2021/06/18 09:48:06;;;;;;;16.10;8.75;;;;;;;;;;6258946;22;20034;-84
2021/06/18 09:50:33;;;;;;;;;;;;;;;;;;6281576;22;20313;-84
2021/06/18 09:53:11;;;;;;;11.07;7.47;;;;;;;;;;6249203;22;19915;-85
2021/06/18 09:55:42;;;;;;;11.70;8.30;;;;;;;;;;6247630;22;20057;-84
2021/06/18 09:58:09;;;;;;;13.20;7.72;;;;;;;;;;6247774;22;20028;-84
2021/06/18 10:00:36;;;;;;;18.08;8.48;;;;;;;;;;6250349;22;20023;-86
2021/06/18 10:03:07;;;;;;;11.70;7.78;;;;;;;;;;6249518;22;20235;-86
2021/06/18 10:05:37;;;;;;;10.68;7.65;;;;;;;;;;6278415;22;20272;-88
2021/06/18 10:08:07;;;;;;;10.55;7.43;;;;;;;;;;6250960;22;20432;-84
2021/06/18 10:11:01;;;;;;;27.30;8.93;;;;;;;;;;6255227;22;20144;-83
2021/06/18 10:13:28;;;;;;;19.80;8.43;;;;;;;;;;6241464;23;20024;-84
2021/06/18 10:15:55;;;;;;;13.70;8.02;;;;;;;;;;6239404;23;20028;-85
2021/06/18 10:18:21;;;;;;;17.02;7.72;;;;;;;;;;6244571;23;20036;-85
2021/06/18 10:20:51;;;;;;;20.10;6.75;;;;;;;;;;6245287;23;20024;-85
2021/06/18 10:23:24;;;;;;;12.93;7.18;;;;;;;;;;6244201;23;20103;-84
2021/06/18 10:25:53;;;;;;;14.45;8.38;;;;;;;;;;6246548;23;20082;-85
2021/06/18 10:28:33;;;;;;;17.73;8.30;;;;;;;;;;6244684;23;20020;-84
2021/06/18 10:31:03;;;;;;;12.60;7.50;;;;;;;;;;6244859;22;20035;-84
2021/06/18 10:33:32;;;;;;;9.13;6.35;;;;;;;;;;6246343;23;20028;-85
2021/06/18 10:36:17;;;;;;;12.32;7.25;;;;;;;;;;6246768;23;20090;-85
2021/06/18 10:38:47;;;;;;;11.20;7.63;;;;;;;;;;6242958;23;20103;-84
2021/06/18 10:41:17;;;;;;;13.65;7.13;;;;;;;;;;6244320;23;20039;-86
2021/06/18 10:43:45;;;;;;;13.15;7.22;;;;;;;;;;6245911;23;20028;-86
2021/06/18 10:46:15;;;;;;;10.45;7.63;;;;;;;;;;6246240;22;20032;-85
2021/06/18 10:48:45;;;;;;;15.90;7.93;;;;;;;;;;6245097;23;20036;-85
2021/06/18 10:51:30;;;;;;;14.27;8.27;;;;;;;;;;6246198;23;20308;-85
2021/06/18 10:54:30;;;;;;;11.40;7.75;;;;;;;;;;6246994;23;20024;-84
2021/06/18 10:57:04;;;;;;;13.70;6.75;;;;;;;;;;6245557;22;20032;-85
2021/06/18 10:59:35;;;;;;;14.00;7.22;;;;;;;;;;6247704;22;20024;-85
2021/06/18 11:02:22;;;;;;;13.20;8.30;;;;;;;;;;6246967;23;20028;-85
2021/06/18 11:04:56;;;;;;;17.33;8.25;;;;;;;;;;6253287;23;20035;-85
2021/06/18 11:07:46;;;;;;;12.15;7.53;;;;;;;;;;6254964;22;20021;-84
2021/06/18 11:10:33;;;;;;;13.80;8.00;;;;;;;;;;6249057;23;20024;-85
2021/06/18 11:13:00;;;;;;;13.25;10.50;;;;;;;;;;6248797;23;20025;-86
2021/06/18 11:22:43;;;;;;;12.40;7.90;;;;;;;;;;6249684;23;20077;-85
2021/06/18 11:25:29;;;;;;;9.85;7.53;;;;;;;;;;6249384;23;20047;-86
2021/06/18 11:27:55;;;;;;;;;;;;;;;;;;6251664;23;20031;-86
2021/06/18 11:30:29;;;;;;;11.32;8.02;;;;;;;;;;6245968;23;20270;-85
2021/06/18 11:32:56;;;;;;;12.85;8.90;;;;;;;;;;6246058;23;20086;-86
2021/06/18 11:35:41;;;;;;;12.75;6.97;;;;;;;;;;6242196;23;20506;-86
2021/06/18 11:38:16;;;;;;;13.20;8.88;;;;;;;;;;6249515;22;20109;-85
2021/06/18 11:40:42;;;;;;;;;;;;;;;;;;6245647;23;20028;-85
2021/06/18 11:43:09;;;;;;;10.80;7.97;;;;;;;;;;6246079;22;19926;-85
2021/06/18 11:45:38;;;;;;;12.15;10.57;;;;;;;;;;6241288;23;20047;-85
2021/06/18 11:48:15;;;;;;;13.82;8.93;;;;;;;;;;6248788;22;20028;-86
2021/06/18 11:50:45;;;;;;;12.32;8.73;;;;;;;;;;6257832;23;20024;-86
2021/06/18 11:53:12;;;;;;;13.20;8.40;;;;;;;;;;6251745;23;20406;-86
2021/06/18 11:55:39;;;;;;;11.80;7.30;;;;;;;;;;6250135;22;20123;-85
2021/06/18 11:58:06;;;;;;;13.48;8.52;;;;;;;;;;6245874;23;20024;-86
2021/06/18 12:00:33;;;;;;;11.95;8.38;;;;;;;;;;6246842;22;20028;-85
2021/06/18 12:03:01;;;;;;;10.52;7.38;;;;;;;;;;6244811;23;20024;-85
2021/06/18 12:05:32;;;;;;;11.68;7.35;;;;;;;;;;6247673;23;20111;-84
2021/06/18 12:08:09;;;;;;;12.50;7.93;;;;;;;;;;6247631;22;20072;-85
2021/06/18 12:10:39;;;;;;;11.27;7.20;;;;;;;;;;6247087;23;20025;-85
2021/06/18 12:13:13;;;;;;;10.50;6.18;;;;;;;;;;6251588;22;20287;-85
2021/06/18 12:15:45;;;;;;;16.02;8.05;;;;;;;;;;6275566;22;20050;-85
2021/06/18 12:18:28;;;;;;;9.88;7.80;;;;;;;;;;6270405;22;20202;-85
2021/06/18 12:21:08;;;;;;;13.43;7.03;;;;;;;;;;6251257;22;20078;-85
2021/06/18 12:23:35;;;;;;;13.43;7.50;;;;;;;;;;6276394;22;20030;-85
2021/06/18 12:26:01;;;;;;;10.35;6.68;;;;;;;;;;6278405;22;20309;-84
2021/06/18 12:28:41;;;;;;;13.73;7.30;;;;;;;;;;6250203;22;20035;-85
2021/06/18 12:31:07;;;;;;;10.85;7.97;;;;;;;;;;6279370;22;20077;-86
2021/06/18 12:33:34;;;;;;;13.50;7.65;;;;;;;;;;6278146;22;20020;-84
2021/06/18 12:36:01;;;;;;;9.82;7.10;;;;;;;;;;6245546;22;20049;-84
2021/06/18 12:38:34;;;;;;;10.90;7.22;;;;;;;;;;6277617;22;20031;-84
2021/06/18 12:41:01;;;;;;;12.05;7.43;;;;;;;;;;6249044;22;20036;-84
2021/06/18 12:43:33;;;;;;;12.98;8.60;;;;;;;;;;6274787;22;20027;-85
2021/06/18 12:46:03;;;;;;;13.98;7.25;;;;;;;;;;6248359;22;20051;-85
2021/06/18 12:48:31;;;;;;;11.40;6.70;;;;;;;;;;6248539;22;20030;-85
2021/06/18 12:50:59;;;;;;;10.63;6.38;;;;;;;;;;6247301;22;20187;-84
2021/06/18 12:53:44;;;;;;;7.72;5.85;;;;;;;;;;6274025;22;20066;-85
2021/06/18 12:56:19;;;;;;;12.35;5.65;;;;;;;;;;6251501;22;20051;-85
2021/06/18 12:58:47;;;;;;;20.40;6.90;;;;;;;;;;6228452;22;20135;-85
2021/06/18 13:01:22;;;;;;;10.20;6.40;;;;;;;;;;6248441;22;20032;-86
2021/06/18 13:04:07;;;;;;;13.93;7.60;;;;;;;;;;6277059;22;20275;-86
2021/06/18 13:06:50;;;;;;;9.70;6.18;;;;;;;;;;6253858;22;20020;-84
2021/06/18 13:09:30;;;;;;;9.43;6.10;;;;;;;;;;6253297;22;20023;-84
2021/06/18 13:11:57;;;;;;;10.00;7.05;;;;;;;;;;6249830;22;20077;-84
2021/06/18 13:14:28;;;;;;;11.15;6.93;;;;;;;;;;6292630;22;20042;-85
2021/06/18 13:17:00;;;;;;;13.20;7.03;;;;;;;;;;6267738;22;20007;-86
2021/06/18 13:19:42;;;;;;;10.87;6.90;;;;;;;;;;6277611;22;20374;-86
2021/06/18 13:22:11;;;;;;;14.68;6.53;;;;;;;;;;6247075;22;20464;-85
2021/06/18 13:25:04;;;;;;;9.77;6.88;;;;;;;;;;6242464;22;20034;-86
2021/06/18 13:27:31;;;;;;;13.23;6.60;;;;;;;;;;6265258;22;20038;-85
2021/06/18 13:30:07;;;;;;;15.40;6.20;;;;;;;;;;6246264;22;20066;-86
2021/06/18 13:32:42;;;;;;;13.23;7.18;;;;;;;;;;6258311;22;20035;-85
2021/06/18 13:35:20;;;;;;;18.55;6.85;;;;;;;;;;6252923;22;20024;-85
2021/06/18 13:38:01;;;;;;;9.98;7.18;;;;;;;;;;6250991;22;20019;-85
2021/06/18 13:40:44;;;;;;;10.93;6.05;;;;;;;;;;6274212;22;20019;-86
2021/06/18 13:43:10;;;;;;;9.38;5.82;;;;;;;;;;6249246;22;20030;-85
2021/06/18 13:45:38;;;;;;;12.45;6.38;;;;;;;;;;6273316;22;20164;-86
2021/06/18 13:48:07;;;;;;;12.73;8.07;;;;;;;;;;6244290;22;20030;-85
2021/06/18 13:50:43;;;;;;;10.75;6.57;;;;;;;;;;6271841;22;20101;-85
2021/06/18 13:53:11;;;;;;;12.60;7.80;;;;;;;;;;6269845;22;20039;-84
2021/06/18 13:55:40;;;;;;;11.82;7.65;;;;;;;;;;6270926;22;20189;-85
2021/06/18 13:58:07;;;;;;;11.27;7.82;;;;;;;;;;6243519;22;20032;-85
2021/06/18 14:00:37;;;;;;;15.70;8.38;;;;;;;;;;6272355;22;20097;-85
2021/06/18 14:03:04;;;;;;;10.60;7.20;;;;;;;;;;6270497;22;20034;-86
2021/06/18 14:05:35;;;;;;;7.80;6.85;;;;;;;;;;6251363;22;20226;-85
2021/06/18 14:08:02;;;;;;;9.65;7.30;;;;;;;;;;6272632;22;20192;-85
2021/06/18 14:10:32;;;;;;;12.68;7.57;;;;;;;;;;6269187;22;20023;-85
2021/06/18 14:13:00;;;;;;;11.30;7.15;;;;;;;;;;6269588;22;20024;-85
2021/06/18 14:15:29;;;;;;;10.70;6.85;;;;;;;;;;6268285;22;20038;-86
2021/06/18 14:17:58;;;;;;;9.15;7.20;;;;;;;;;;6242583;22;20027;-85
2021/06/18 14:20:41;;;;;;;13.95;8.38;;;;;;;;;;6240385;22;20397;-85
2021/06/18 14:23:08;;;;;;;13.52;8.20;;;;;;;;;;6242199;22;20034;-85
2021/06/18 14:25:36;;;;;;;17.58;8.85;;;;;;;;;;6271072;22;20254;-84
2021/06/18 14:28:09;;;;;;;16.75;7.57;;;;;;;;;;6267014;22;20024;-84
2021/06/18 14:30:38;;;;;;;11.55;7.22;;;;;;;;;;6270954;22;20408;-85
2021/06/18 14:33:08;;;;;;;12.50;7.18;;;;;;;;;;6267876;22;20340;-84
2021/06/18 14:35:39;;;;;;;10.57;7.60;;;;;;;;;;6240553;22;20019;-85
2021/06/18 14:38:05;;;;;;;10.27;7.35;;;;;;;;;;6241769;22;20034;-86
2021/06/18 14:40:32;;;;;;;14.25;7.10;;;;;;;;;;6267559;22;20082;-86
2021/06/18 14:42:59;;;;;;;12.32;7.00;;;;;;;;;;6265390;22;20266;-84
2021/06/18 14:45:27;;;;;;;11.02;6.35;;;;;;;;;;6266361;22;20138;-85
2021/06/18 14:47:54;;;;;;;14.30;7.60;;;;;;;;;;6242693;22;20028;-84
2021/06/18 14:50:25;;;;;;;9.80;6.20;;;;;;;;;;6243725;22;20278;-85